createdAt,value
2023-08-13T00:00:32.320Z,4.07
2023-08-13T00:01:34.190Z,3.90
2023-08-13T00:02:36.600Z,3.53
2023-08-13T00:03:38.581Z,3.15
2023-08-13T00:04:40.483Z,2.95
2023-08-13T00:05:42.364Z,3.70
2023-08-13T00:06:44.296Z,3.22
2023-08-13T00:07:46.131Z,3.30
2023-08-13T00:08:47.948Z,2.85
2023-08-13T00:09:49.748Z,3.10
2023-08-13T00:10:51.635Z,3.65
2023-08-13T00:11:54.512Z,3.72
2023-08-13T00:12:56.402Z,3.72
2023-08-13T00:13:58.226Z,6.40
2023-08-13T00:15:01.644Z,3.50
2023-08-13T00:16:03.650Z,3.53
2023-08-13T00:17:06.046Z,3.35
2023-08-13T00:18:08.003Z,3.40
2023-08-13T00:19:09.810Z,3.00
2023-08-13T00:20:12.358Z,3.90
2023-08-13T00:21:14.185Z,3.40
2023-08-13T00:22:16.809Z,3.30
2023-08-13T00:23:18.620Z,3.38
2023-08-13T00:24:20.438Z,3.15
2023-08-13T00:25:22.536Z,3.38
2023-08-13T00:26:24.470Z,3.30
2023-08-13T00:27:26.328Z,3.30
2023-08-13T00:28:28.143Z,3.90
2023-08-13T00:29:29.985Z,4.00
2023-08-13T00:30:31.846Z,3.45
2023-08-13T00:31:33.690Z,3.92
2023-08-13T00:32:35.612Z,4.70
2023-08-13T00:33:37.871Z,4.00
2023-08-13T00:34:39.637Z,4.00
2023-08-13T00:35:41.432Z,4.45
2023-08-13T00:36:43.233Z,4.22
2023-08-13T00:37:45.044Z,5.00
2023-08-13T00:38:46.902Z,4.55
2023-08-13T00:39:48.783Z,4.43
2023-08-13T00:40:50.703Z,4.85
2023-08-13T00:41:54.172Z,4.25
2023-08-13T00:42:55.973Z,4.18
2023-08-13T00:43:57.840Z,4.40
2023-08-13T00:44:59.634Z,4.60
2023-08-13T00:46:01.566Z,4.10
2023-08-13T00:47:03.711Z,4.65
2023-08-13T00:48:07.958Z,4.32
2023-08-13T00:50:13.190Z,4.55
2023-08-13T00:51:15.538Z,5.35
2023-08-13T00:52:18.572Z,5.70
2023-08-13T00:53:21.215Z,5.55
2023-08-13T00:54:23.430Z,5.78
2023-08-13T00:55:26.243Z,5.18
2023-08-13T00:56:28.483Z,4.65
2023-08-13T00:57:31.168Z,4.47
2023-08-13T00:58:33.034Z,4.55
2023-08-13T00:59:36.004Z,4.60
2023-08-13T01:00:39.180Z,4.50
2023-08-13T01:01:43.220Z,4.40
2023-08-13T01:02:45.216Z,4.22
2023-08-13T01:03:47.012Z,4.82
2023-08-13T01:04:49.128Z,4.30
2023-08-13T01:06:03.730Z,5.00
2023-08-13T01:07:34.467Z,5.50
2023-08-13T01:09:14.579Z,4.55
2023-08-13T01:10:48.480Z,4.60
2023-08-13T01:12:24.364Z,4.10
2023-08-13T01:13:41.080Z,4.60
2023-08-13T01:15:24.635Z,4.30
2023-08-13T01:16:28.524Z,4.03
2023-08-13T01:17:32.589Z,4.53
2023-08-13T01:18:35.961Z,3.65
2023-08-13T01:19:37.761Z,4.38
2023-08-13T01:20:44.435Z,4.97
2023-08-13T01:21:47.313Z,4.70
2023-08-13T01:22:50.547Z,5.72
2023-08-13T01:23:54.402Z,20.20
2023-08-13T01:24:57.637Z,12.23
2023-08-13T01:26:18.683Z,6.40
2023-08-13T01:27:43.191Z,4.63
2023-08-13T01:29:00.793Z,4.40
2023-08-13T01:30:18.572Z,8.23
2023-08-13T01:31:31.481Z,4.90
2023-08-13T01:32:49.700Z,4.50
2023-08-13T01:33:53.509Z,4.70
2023-08-13T01:34:56.768Z,4.53
2023-08-13T01:36:05.821Z,3.85
2023-08-13T01:37:08.643Z,4.57
2023-08-13T01:38:11.949Z,4.05
2023-08-13T01:39:14.194Z,4.30
2023-08-13T01:40:16.038Z,4.78
2023-08-13T01:41:17.941Z,5.13
2023-08-13T01:42:19.764Z,5.25
2023-08-13T01:43:21.596Z,4.53
2023-08-13T01:44:23.999Z,4.20
2023-08-13T01:45:26.145Z,4.60
2023-08-13T01:46:28.018Z,4.70
2023-08-13T01:47:30.033Z,5.18
2023-08-13T01:48:31.867Z,5.22
2023-08-13T01:49:34.382Z,4.72
2023-08-13T01:50:41.771Z,5.15
2023-08-13T01:51:43.576Z,4.75
2023-08-13T01:52:45.462Z,5.07
2023-08-13T01:53:47.251Z,4.50
2023-08-13T01:54:49.085Z,4.45
2023-08-13T01:55:50.971Z,4.40
2023-08-13T01:56:52.910Z,4.40
2023-08-13T01:57:54.720Z,4.30
2023-08-13T01:58:56.561Z,4.25
2023-08-13T01:59:58.555Z,4.65
2023-08-13T02:01:02.109Z,4.47
2023-08-13T02:02:04.105Z,4.35
2023-08-13T02:03:06.196Z,3.85
2023-08-13T02:04:08.129Z,4.40
2023-08-13T02:05:10.255Z,4.82
2023-08-13T02:06:12.203Z,4.22
2023-08-13T02:07:13.966Z,4.10
2023-08-13T02:08:15.789Z,4.82
2023-08-13T02:09:17.608Z,4.60
2023-08-13T02:10:19.532Z,3.88
2023-08-13T02:11:21.343Z,4.05
2023-08-13T02:12:23.571Z,3.60
2023-08-13T02:13:25.845Z,3.97
2023-08-13T02:14:28.562Z,4.00
2023-08-13T02:15:30.408Z,4.40
2023-08-13T02:16:32.260Z,4.13
2023-08-13T02:17:34.143Z,4.40
2023-08-13T02:18:36.022Z,4.65
2023-08-13T02:19:37.860Z,5.05
2023-08-13T02:20:39.628Z,4.38
2023-08-13T02:21:41.572Z,4.22
2023-08-13T02:22:43.393Z,4.13
2023-08-13T02:23:45.238Z,4.32
2023-08-13T02:24:47.098Z,4.10
2023-08-13T02:25:50.755Z,4.63
2023-08-13T02:26:52.533Z,4.20
2023-08-13T02:27:54.391Z,4.70
2023-08-13T02:28:56.170Z,4.55
2023-08-13T02:29:58.020Z,4.10
2023-08-13T02:30:59.999Z,4.30
2023-08-13T02:32:01.840Z,4.50
2023-08-13T02:33:04.039Z,4.53
2023-08-13T02:34:05.918Z,4.43
2023-08-13T02:35:08.445Z,4.30
2023-08-13T02:36:10.809Z,5.13
2023-08-13T02:37:13.140Z,6.75
2023-08-13T02:38:14.969Z,4.40
2023-08-13T02:39:16.867Z,4.47
2023-08-13T02:40:18.713Z,4.25
2023-08-13T02:41:20.548Z,4.78
2023-08-13T02:42:22.466Z,4.50
2023-08-13T02:43:32.765Z,4.70
2023-08-13T02:44:34.647Z,4.90
2023-08-13T02:45:36.512Z,5.10
2023-08-13T02:46:38.559Z,5.18
2023-08-13T02:47:40.592Z,4.97
2023-08-13T02:48:42.579Z,5.38
2023-08-13T02:49:44.573Z,4.68
2023-08-13T02:50:46.451Z,5.07
2023-08-13T02:51:49.652Z,5.50
2023-08-13T02:52:51.518Z,5.10
2023-08-13T02:53:53.466Z,5.15
2023-08-13T02:54:55.280Z,5.43
2023-08-13T02:55:57.104Z,4.85
2023-08-13T02:57:00.650Z,4.70
2023-08-13T02:58:10.108Z,5.22
2023-08-13T02:59:12.474Z,5.25
2023-08-13T03:00:15.269Z,5.00
2023-08-13T03:01:17.107Z,5.45
2023-08-13T03:02:18.918Z,5.03
2023-08-13T03:03:20.804Z,6.10
2023-08-13T03:04:22.686Z,5.55
2023-08-13T03:05:24.659Z,5.35
2023-08-13T03:06:26.544Z,4.65
2023-08-13T03:07:28.430Z,4.80
2023-08-13T03:08:30.460Z,4.80
2023-08-13T03:09:32.286Z,5.00
2023-08-13T03:10:34.120Z,4.68
2023-08-13T03:11:35.960Z,4.70
2023-08-13T03:12:37.807Z,4.32
2023-08-13T03:13:39.660Z,4.85
2023-08-13T03:14:42.542Z,4.70
2023-08-13T03:15:45.699Z,4.22
2023-08-13T03:16:47.534Z,4.63
2023-08-13T03:17:49.480Z,4.60
2023-08-13T03:18:51.628Z,4.70
2023-08-13T03:19:53.472Z,4.93
2023-08-13T03:20:55.300Z,4.40
2023-08-13T03:21:57.102Z,4.05
2023-08-13T03:22:58.896Z,5.05
2023-08-13T03:24:00.701Z,4.45
2023-08-13T03:25:02.501Z,5.03
2023-08-13T03:26:05.160Z,5.18
2023-08-13T03:27:06.992Z,5.05
2023-08-13T03:28:09.037Z,5.05
2023-08-13T03:29:10.824Z,4.88
2023-08-13T03:30:12.714Z,4.78
2023-08-13T03:31:14.716Z,4.88
2023-08-13T03:32:16.650Z,4.50
2023-08-13T03:33:18.777Z,5.25
2023-08-13T03:34:20.718Z,4.85
2023-08-13T03:35:22.536Z,4.65
2023-08-13T03:36:24.375Z,4.60
2023-08-13T03:37:26.204Z,4.90
2023-08-13T03:38:29.031Z,4.90
2023-08-13T03:39:30.850Z,4.50
2023-08-13T03:40:33.390Z,4.97
2023-08-13T03:41:35.182Z,5.55
2023-08-13T03:42:36.983Z,4.68
2023-08-13T03:43:38.826Z,5.50
2023-08-13T03:44:42.972Z,5.80
2023-08-13T03:45:45.047Z,5.65
2023-08-13T03:46:46.874Z,4.60
2023-08-13T03:47:48.688Z,4.85
2023-08-13T03:48:50.713Z,5.20
2023-08-13T03:49:52.554Z,5.05
2023-08-13T03:50:54.478Z,5.05
2023-08-13T03:51:56.237Z,4.80
2023-08-13T03:52:58.030Z,6.03
2023-08-13T03:54:00.404Z,4.63
2023-08-13T03:55:02.536Z,4.70
2023-08-13T03:56:08.703Z,4.68
2023-08-13T03:57:10.562Z,4.70
2023-08-13T03:58:12.364Z,4.70
2023-08-13T03:59:14.161Z,4.65
2023-08-13T04:00:16.241Z,5.05
2023-08-13T04:01:18.190Z,4.95
2023-08-13T04:02:20.177Z,5.10
2023-08-13T04:03:26.324Z,4.30
2023-08-13T04:04:28.821Z,4.70
2023-08-13T04:05:31.221Z,4.68
2023-08-13T04:06:33.674Z,4.50
2023-08-13T04:07:35.504Z,5.38
2023-08-13T04:08:37.355Z,5.47
2023-08-13T04:09:39.294Z,4.65
2023-08-13T04:10:41.397Z,4.28
2023-08-13T04:11:43.394Z,5.35
2023-08-13T04:12:45.353Z,5.00
2023-08-13T04:13:47.173Z,5.80
2023-08-13T04:14:48.955Z,5.20
2023-08-13T04:15:50.907Z,4.78
2023-08-13T04:16:52.741Z,4.80
2023-08-13T04:17:54.536Z,4.47
2023-08-13T04:18:56.385Z,4.22
2023-08-13T04:19:58.915Z,4.85
2023-08-13T04:21:00.989Z,4.90
2023-08-13T04:22:02.804Z,4.53
2023-08-13T04:23:04.800Z,4.82
2023-08-13T04:24:07.262Z,4.78
2023-08-13T04:25:09.708Z,4.60
2023-08-13T04:26:11.768Z,5.20
2023-08-13T04:27:13.566Z,4.30
2023-08-13T04:28:15.504Z,4.70
2023-08-13T04:29:17.332Z,4.95
2023-08-13T04:30:19.401Z,4.70
2023-08-13T04:31:21.798Z,4.43
2023-08-13T04:32:23.664Z,4.95
2023-08-13T04:33:25.551Z,4.30
2023-08-13T04:34:27.344Z,5.35
2023-08-13T04:35:29.162Z,4.80
2023-08-13T04:36:31.025Z,4.38
2023-08-13T04:37:32.875Z,4.13
2023-08-13T04:38:34.905Z,4.88
2023-08-13T04:39:36.753Z,3.90
2023-08-13T04:40:38.583Z,4.32
2023-08-13T04:41:42.027Z,3.85
2023-08-13T04:42:44.603Z,4.05
2023-08-13T04:43:46.415Z,3.65
2023-08-13T04:44:48.270Z,4.20
2023-08-13T04:45:50.166Z,4.22
2023-08-13T04:46:51.983Z,4.22
2023-08-13T04:47:53.968Z,4.30
2023-08-13T04:48:55.988Z,3.80
2023-08-13T04:49:57.882Z,3.90
2023-08-13T04:50:59.911Z,3.92
2023-08-13T04:52:01.726Z,3.83
2023-08-13T04:53:03.716Z,3.90
2023-08-13T04:54:05.857Z,3.60
2023-08-13T04:55:08.266Z,4.05
2023-08-13T04:56:10.154Z,3.70
2023-08-13T04:57:11.971Z,3.42
2023-08-13T04:58:13.766Z,4.15
2023-08-13T04:59:15.562Z,3.72
2023-08-13T05:00:17.620Z,3.97
2023-08-13T05:01:19.592Z,3.60
2023-08-13T05:02:21.355Z,3.55
2023-08-13T05:03:23.188Z,3.25
2023-08-13T05:04:25.064Z,3.58
2023-08-13T05:05:27.110Z,3.30
2023-08-13T05:06:29.032Z,3.40
2023-08-13T05:07:30.879Z,3.38
2023-08-13T05:08:32.793Z,3.38
2023-08-13T05:09:35.901Z,3.13
2023-08-13T05:10:37.746Z,3.22
2023-08-13T05:11:39.825Z,3.85
2023-08-13T05:12:41.692Z,3.97
2023-08-13T05:13:43.513Z,3.20
2023-08-13T05:14:45.393Z,3.25
2023-08-13T05:15:47.377Z,3.22
2023-08-13T05:16:49.358Z,3.28
2023-08-13T05:17:51.510Z,2.83
2023-08-13T05:18:53.416Z,3.80
2023-08-13T05:19:55.272Z,2.80
2023-08-13T05:20:57.147Z,3.28
2023-08-13T05:21:58.973Z,2.80
2023-08-13T05:23:00.918Z,2.75
2023-08-13T05:24:02.818Z,3.10
2023-08-13T05:25:05.244Z,3.00
2023-08-13T05:26:07.571Z,3.25
2023-08-13T05:27:09.749Z,2.78
2023-08-13T05:28:11.627Z,2.83
2023-08-13T05:29:13.470Z,2.67
2023-08-13T05:30:15.572Z,3.03
2023-08-13T05:31:17.652Z,2.55
2023-08-13T05:32:19.806Z,2.33
2023-08-13T05:33:21.629Z,2.85
2023-08-13T05:34:23.569Z,2.80
2023-08-13T05:35:25.444Z,2.58
2023-08-13T05:36:27.644Z,2.85
2023-08-13T05:37:29.536Z,6.95
2023-08-13T05:38:33.321Z,3.10
2023-08-13T05:39:35.138Z,3.30
2023-08-13T05:40:37.028Z,3.13
2023-08-13T05:41:38.950Z,2.50
2023-08-13T05:42:40.909Z,3.60
2023-08-13T05:43:43.070Z,3.22
2023-08-13T05:44:44.875Z,5.75
2023-08-13T05:45:46.705Z,5.05
2023-08-13T05:46:48.634Z,8.45
2023-08-13T05:47:52.014Z,6.05
2023-08-13T05:48:53.868Z,3.25
2023-08-13T05:49:55.693Z,2.10
2023-08-13T05:50:57.480Z,5.60
2023-08-13T05:51:59.323Z,3.80
2023-08-13T05:53:01.224Z,8.02
2023-08-13T05:54:03.393Z,5.20
2023-08-13T05:55:06.398Z,2.90
2023-08-13T05:56:08.275Z,2.65
2023-08-13T05:57:10.190Z,2.72
2023-08-13T05:58:12.097Z,3.10
2023-08-13T05:59:13.919Z,2.33
2023-08-13T06:00:16.651Z,2.80
2023-08-13T06:01:18.535Z,2.58
2023-08-13T06:02:20.437Z,2.42
2023-08-13T06:03:27.296Z,2.50
2023-08-13T06:04:29.519Z,2.05
2023-08-13T06:05:31.348Z,2.33
2023-08-13T06:06:33.625Z,2.35
2023-08-13T06:07:35.988Z,2.55
2023-08-13T06:08:37.909Z,2.30
2023-08-13T06:09:39.766Z,2.22
2023-08-13T06:10:41.603Z,2.22
2023-08-13T06:11:43.420Z,2.42
2023-08-13T06:12:45.329Z,2.30
2023-08-13T06:13:47.330Z,2.30
2023-08-13T06:14:49.225Z,2.60
2023-08-13T06:15:51.057Z,2.30
2023-08-13T06:16:57.814Z,1.98
2023-08-13T06:18:10.565Z,2.10
2023-08-13T06:19:13.335Z,2.17
2023-08-13T06:20:16.459Z,2.25
2023-08-13T06:21:18.395Z,2.17
2023-08-13T06:22:20.376Z,2.35
2023-08-13T06:23:22.334Z,2.35
2023-08-13T06:24:24.192Z,2.15
2023-08-13T06:25:26.012Z,2.63
2023-08-13T06:26:27.930Z,2.25
2023-08-13T06:27:29.738Z,2.45
2023-08-13T06:28:31.640Z,2.90
2023-08-13T06:29:33.523Z,2.78
2023-08-13T06:30:35.364Z,1.90
2023-08-13T06:31:43.280Z,2.33
2023-08-13T06:32:45.475Z,2.40
2023-08-13T06:33:47.282Z,2.17
2023-08-13T06:34:49.160Z,2.15
2023-08-13T06:35:51.370Z,2.00
2023-08-13T06:36:54.864Z,1.73
2023-08-13T06:38:02.190Z,1.92
2023-08-13T06:39:05.088Z,3.10
2023-08-13T06:40:08.531Z,1.98
2023-08-13T06:41:10.532Z,2.30
2023-08-13T06:42:12.949Z,1.80
2023-08-13T06:43:15.911Z,1.90
2023-08-13T06:44:20.530Z,2.30
2023-08-13T06:45:27.547Z,2.20
2023-08-13T06:46:29.681Z,2.15
2023-08-13T06:47:31.561Z,1.67
2023-08-13T06:48:34.705Z,1.90
2023-08-13T06:49:36.606Z,2.00
2023-08-13T06:50:39.742Z,2.58
2023-08-13T06:51:42.291Z,2.35
2023-08-13T06:52:44.106Z,2.05
2023-08-13T06:53:45.965Z,2.42
2023-08-13T06:54:47.898Z,2.60
2023-08-13T06:55:49.842Z,2.15
2023-08-13T06:56:51.716Z,2.25
2023-08-13T06:57:53.870Z,2.10
2023-08-13T06:58:55.698Z,2.08
2023-08-13T06:59:57.703Z,1.95
2023-08-13T07:01:01.131Z,2.20
2023-08-13T07:02:03.109Z,2.05
2023-08-13T07:03:05.716Z,1.85
2023-08-13T07:04:08.030Z,2.10
2023-08-13T07:05:13.189Z,2.25
2023-08-13T07:06:16.234Z,2.17
2023-08-13T07:07:18.235Z,2.25
2023-08-13T07:08:20.074Z,1.75
2023-08-13T07:09:21.883Z,2.10
2023-08-13T07:10:23.824Z,1.90
2023-08-13T07:11:25.681Z,1.60
2023-08-13T07:12:27.616Z,2.13
2023-08-13T07:13:29.553Z,1.80
2023-08-13T07:14:31.370Z,1.70
2023-08-13T07:15:33.647Z,1.90
2023-08-13T07:16:36.273Z,1.92
2023-08-13T07:17:38.264Z,1.77
2023-08-13T07:18:43.306Z,2.05
2023-08-13T07:19:45.150Z,2.00
2023-08-13T07:20:46.988Z,2.08
2023-08-13T07:21:48.746Z,1.80
2023-08-13T07:22:50.576Z,2.47
2023-08-13T07:23:52.437Z,2.20
2023-08-13T07:24:54.272Z,2.47
2023-08-13T07:25:56.134Z,2.47
2023-08-13T07:26:58.083Z,1.90
2023-08-13T07:27:59.889Z,1.90
2023-08-13T07:29:01.778Z,2.22
2023-08-13T07:30:04.544Z,2.00
2023-08-13T07:31:06.439Z,1.90
2023-08-13T07:32:08.431Z,2.00
2023-08-13T07:33:10.647Z,1.60
2023-08-13T07:34:12.542Z,1.65
2023-08-13T07:35:14.466Z,1.75
2023-08-13T07:36:16.506Z,1.75
2023-08-13T07:37:18.385Z,2.33
2023-08-13T07:38:20.179Z,1.55
2023-08-13T07:39:23.177Z,2.10
2023-08-13T07:40:25.213Z,1.60
2023-08-13T07:41:27.033Z,1.73
2023-08-13T07:42:28.826Z,2.10
2023-08-13T07:43:32.562Z,2.13
2023-08-13T07:44:34.374Z,4.00
2023-08-13T07:45:36.365Z,2.15
2023-08-13T07:46:38.373Z,2.30
2023-08-13T07:47:40.481Z,1.55
2023-08-13T07:48:43.446Z,1.67
2023-08-13T07:49:45.262Z,1.60
2023-08-13T07:50:47.644Z,1.75
2023-08-13T07:51:49.441Z,2.10
2023-08-13T07:52:51.422Z,1.77
2023-08-13T07:53:53.318Z,1.92
2023-08-13T07:54:55.370Z,2.10
2023-08-13T07:55:57.180Z,2.00
2023-08-13T07:56:59.096Z,1.55
2023-08-13T07:58:01.122Z,2.25
2023-08-13T07:59:03.067Z,1.73
2023-08-13T08:00:09.356Z,1.98
2023-08-13T08:01:11.835Z,2.60
2023-08-13T08:02:14.613Z,1.92
2023-08-13T08:03:16.776Z,2.10
2023-08-13T08:04:18.627Z,1.85
2023-08-13T08:05:22.009Z,1.52
2023-08-13T08:06:23.887Z,2.33
2023-08-13T08:07:26.775Z,1.90
2023-08-13T08:08:28.716Z,2.10
2023-08-13T08:09:30.578Z,1.98
2023-08-13T08:10:32.812Z,1.35
2023-08-13T08:11:35.015Z,1.95
2023-08-13T08:12:36.982Z,2.13
2023-08-13T08:13:38.963Z,1.50
2023-08-13T08:14:40.965Z,1.90
2023-08-13T08:15:42.885Z,1.50
2023-08-13T08:16:44.697Z,1.63
2023-08-13T08:17:46.602Z,1.70
2023-08-13T08:18:48.453Z,2.17
2023-08-13T08:19:50.445Z,1.92
2023-08-13T08:20:52.245Z,2.05
2023-08-13T08:21:57.886Z,1.92
2023-08-13T08:22:59.866Z,1.90
2023-08-13T08:24:04.635Z,1.50
2023-08-13T08:25:11.732Z,1.83
2023-08-13T08:26:13.590Z,1.52
2023-08-13T08:27:15.532Z,1.70
2023-08-13T08:28:17.318Z,1.75
2023-08-13T08:29:19.868Z,1.50
2023-08-13T08:30:21.708Z,2.00
2023-08-13T08:31:23.593Z,2.05
2023-08-13T08:32:25.436Z,2.28
2023-08-13T08:33:27.450Z,1.80
2023-08-13T08:34:31.134Z,2.03
2023-08-13T08:35:34.948Z,1.95
2023-08-13T08:36:36.902Z,1.70
2023-08-13T08:37:39.171Z,2.65
2023-08-13T08:38:41.043Z,2.33
2023-08-13T08:39:42.944Z,1.70
2023-08-13T08:40:49.963Z,1.83
2023-08-13T08:41:58.447Z,1.77
2023-08-13T08:43:00.469Z,1.55
2023-08-13T08:44:02.395Z,2.00
2023-08-13T08:45:06.523Z,2.10
2023-08-13T08:46:12.336Z,1.65
2023-08-13T08:47:16.524Z,2.13
2023-08-13T08:48:20.639Z,1.70
2023-08-13T08:49:22.787Z,1.90
2023-08-13T08:50:24.840Z,1.60
2023-08-13T08:51:26.906Z,1.90
2023-08-13T08:52:30.229Z,2.30
2023-08-13T08:53:35.750Z,2.05
2023-08-13T08:54:40.662Z,1.90
2023-08-13T08:55:42.726Z,2.10
2023-08-13T08:56:45.161Z,1.85
2023-08-13T08:57:46.994Z,1.77
2023-08-13T08:58:50.939Z,1.80
2023-08-13T08:59:53.407Z,1.98
2023-08-13T09:01:01.346Z,3.40
2023-08-13T09:02:04.914Z,8.48
2023-08-13T09:03:07.884Z,2.50
2023-08-13T09:04:10.085Z,1.88
2023-08-13T09:05:12.713Z,1.45
2023-08-13T09:06:22.182Z,1.77
2023-08-13T09:07:34.400Z,1.70
2023-08-13T09:08:36.297Z,1.45
2023-08-13T09:09:38.696Z,8.05
2023-08-13T09:10:46.086Z,2.58
2023-08-13T09:11:48.238Z,2.10
2023-08-13T09:12:53.517Z,2.15
2023-08-13T09:13:55.369Z,1.65
2023-08-13T09:14:57.318Z,2.22
2023-08-13T09:15:59.225Z,1.80
2023-08-13T09:17:01.161Z,2.47
2023-08-13T09:18:03.501Z,2.20
2023-08-13T09:19:13.979Z,1.85
2023-08-13T09:20:22.385Z,2.10
2023-08-13T09:21:27.285Z,1.30
2023-08-13T09:22:35.527Z,2.20
2023-08-13T09:23:42.475Z,1.70
2023-08-13T09:24:47.928Z,1.67
2023-08-13T09:25:59.093Z,1.40
2023-08-13T09:27:02.774Z,1.52
2023-08-13T09:28:05.155Z,1.50
2023-08-13T09:29:08.296Z,1.70
2023-08-13T09:30:31.688Z,2.97
2023-08-13T09:31:34.733Z,2.40
2023-08-13T09:32:37.249Z,1.88
2023-08-13T09:33:43.605Z,1.60
2023-08-13T09:34:45.505Z,2.65
2023-08-13T09:35:47.347Z,1.85
2023-08-13T09:36:52.226Z,2.10
2023-08-13T09:37:54.363Z,1.40
2023-08-13T09:38:57.463Z,1.95
2023-08-13T09:39:59.331Z,1.80
2023-08-13T09:41:01.859Z,1.73
2023-08-13T09:42:07.666Z,2.80
2023-08-13T09:43:12.159Z,1.92
2023-08-13T09:44:22.381Z,1.55
2023-08-13T09:45:29.684Z,1.60
2023-08-13T09:46:33.685Z,1.77
2023-08-13T09:47:40.883Z,1.75
2023-08-13T09:48:43.945Z,2.00
2023-08-13T09:49:47.570Z,1.92
2023-08-13T09:50:54.091Z,1.80
2023-08-13T09:51:58.689Z,1.80
2023-08-13T09:53:01.039Z,1.70
2023-08-13T09:54:25.233Z,2.20
2023-08-13T09:55:35.744Z,1.88
2023-08-13T09:56:43.474Z,1.65
2023-08-13T09:57:49.018Z,1.85
2023-08-13T09:58:51.414Z,2.63
2023-08-13T09:59:55.626Z,2.25
2023-08-13T10:00:58.877Z,2.10
2023-08-13T10:02:01.581Z,2.25
2023-08-13T10:03:04.099Z,1.70
2023-08-13T10:04:08.307Z,2.25
2023-08-13T10:05:12.543Z,1.90
2023-08-13T10:06:16.799Z,2.20
2023-08-13T10:07:21.619Z,1.70
2023-08-13T10:08:23.793Z,1.80
2023-08-13T10:09:27.821Z,1.85
2023-08-13T10:10:32.521Z,2.40
2023-08-13T10:11:35.635Z,1.88
2023-08-13T10:12:40.153Z,2.80
2023-08-13T10:13:42.100Z,2.13
2023-08-13T10:14:44.336Z,1.80
2023-08-13T10:15:47.245Z,1.42
2023-08-13T10:16:49.819Z,2.40
2023-08-13T10:17:53.139Z,2.40
2023-08-13T10:19:02.263Z,1.80
2023-08-13T10:20:06.404Z,2.08
2023-08-13T10:21:12.631Z,1.95
2023-08-13T10:22:16.784Z,2.05
2023-08-13T10:23:20.063Z,1.40
2023-08-13T10:24:22.418Z,1.98
2023-08-13T10:25:35.217Z,2.05
2023-08-13T10:26:37.301Z,1.67
2023-08-13T10:27:45.060Z,1.75
2023-08-13T10:28:54.194Z,2.60
2023-08-13T10:30:11.685Z,2.13
2023-08-13T10:31:31.399Z,1.90
2023-08-13T10:32:34.216Z,2.40
2023-08-13T10:33:36.971Z,2.33
2023-08-13T10:34:49.945Z,2.03
2023-08-13T10:35:59.881Z,1.83
2023-08-13T10:37:02.767Z,1.92
2023-08-13T10:38:06.473Z,1.88
2023-08-13T10:39:42.128Z,1.75
2023-08-13T10:41:04.660Z,1.85
2023-08-13T10:42:34.241Z,2.15
2023-08-13T10:43:36.482Z,2.10
2023-08-13T10:44:41.961Z,2.35
2023-08-13T10:45:43.963Z,2.35
2023-08-13T10:46:50.160Z,2.50
2023-08-13T10:48:07.868Z,2.20
2023-08-13T10:49:09.757Z,2.35
2023-08-13T10:50:19.989Z,2.10
2023-08-13T10:51:26.321Z,2.00
2023-08-13T10:52:31.659Z,1.67
2023-08-13T10:53:36.013Z,1.73
2023-08-13T10:54:40.047Z,2.17
2023-08-13T10:55:53.050Z,1.40
2023-08-13T10:56:59.937Z,2.05
2023-08-13T10:58:02.076Z,2.40
2023-08-13T10:59:04.563Z,2.28
2023-08-13T11:00:08.040Z,2.05
2023-08-13T11:01:22.351Z,1.70
2023-08-13T11:02:25.419Z,5.13
2023-08-13T11:03:33.750Z,2.30
2023-08-13T11:04:37.334Z,2.85
2023-08-13T11:05:39.180Z,2.55
2023-08-13T11:06:41.363Z,1.85
2023-08-13T11:07:44.687Z,3.10
2023-08-13T11:08:49.107Z,2.53
2023-08-13T11:09:54.100Z,2.83
2023-08-13T11:10:57.086Z,3.00
2023-08-13T11:11:59.373Z,2.60
2023-08-13T11:13:05.594Z,2.50
2023-08-13T11:14:07.642Z,2.33
2023-08-13T11:15:11.736Z,2.33
2023-08-13T11:16:14.308Z,2.22
2023-08-13T11:17:16.310Z,2.20
2023-08-13T11:18:18.303Z,2.22
2023-08-13T11:19:20.115Z,2.15
2023-08-13T11:20:22.363Z,2.65
2023-08-13T11:21:25.630Z,2.05
2023-08-13T11:22:27.544Z,1.88
2023-08-13T11:23:30.130Z,2.05
2023-08-13T11:24:35.404Z,1.83
2023-08-13T11:25:37.256Z,2.25
2023-08-13T11:26:40.705Z,2.45
2023-08-13T11:27:42.704Z,3.05
2023-08-13T11:28:45.981Z,2.20
2023-08-13T11:29:47.775Z,3.05
2023-08-13T11:30:57.671Z,2.13
2023-08-13T11:31:59.658Z,2.38
2023-08-13T11:33:02.732Z,2.22
2023-08-13T11:34:05.537Z,1.70
2023-08-13T11:35:10.809Z,2.13
2023-08-13T11:36:12.887Z,2.00
2023-08-13T11:37:14.905Z,2.13
2023-08-13T11:38:19.628Z,2.13
2023-08-13T11:39:22.309Z,1.70
2023-08-13T11:40:24.371Z,2.63
2023-08-13T11:41:26.290Z,2.15
2023-08-13T11:42:28.120Z,2.10
2023-08-13T11:43:30.755Z,2.20
2023-08-13T11:44:33.601Z,1.95
2023-08-13T11:45:35.538Z,2.60
2023-08-13T11:47:01.324Z,2.35
2023-08-13T11:48:18.146Z,2.40
2023-08-13T11:49:20.251Z,2.10
2023-08-13T11:50:24.928Z,2.55
2023-08-13T11:51:26.923Z,1.90
2023-08-13T11:52:28.784Z,2.05
2023-08-13T11:53:30.758Z,1.92
2023-08-13T11:54:32.792Z,2.20
2023-08-13T11:55:34.886Z,2.00
2023-08-13T11:56:40.762Z,2.60
2023-08-13T11:57:43.842Z,2.03
2023-08-13T11:58:46.989Z,2.40
2023-08-13T11:59:50.582Z,1.98
2023-08-13T12:00:52.564Z,1.80
2023-08-13T12:01:55.428Z,1.80
2023-08-13T12:03:01.425Z,1.80
2023-08-13T12:04:06.005Z,2.38
2023-08-13T12:05:13.760Z,1.58
2023-08-13T12:06:15.635Z,1.95
2023-08-13T12:07:18.088Z,1.92
2023-08-13T12:08:20.924Z,2.75
2023-08-13T12:09:22.821Z,2.58
2023-08-13T12:10:25.821Z,1.73
2023-08-13T12:11:27.652Z,2.08
2023-08-13T12:12:29.446Z,1.85
2023-08-13T12:13:31.375Z,1.80
2023-08-13T12:14:33.187Z,1.67
2023-08-13T12:15:35.221Z,2.17
2023-08-13T12:16:37.742Z,1.95
2023-08-13T12:17:39.833Z,1.92
2023-08-13T12:18:41.824Z,1.90
2023-08-13T12:19:45.731Z,1.77
2023-08-13T12:20:47.624Z,1.88
2023-08-13T12:21:49.621Z,1.60
2023-08-13T12:22:51.890Z,1.95
2023-08-13T12:23:53.868Z,1.90
2023-08-13T12:24:55.935Z,2.08
2023-08-13T12:25:58.167Z,1.90
2023-08-13T12:27:00.019Z,2.25
2023-08-13T12:28:02.072Z,1.98
2023-08-13T12:29:04.075Z,2.17
2023-08-13T12:30:07.246Z,2.47
2023-08-13T12:31:09.149Z,2.08
2023-08-13T12:32:11.037Z,2.25
2023-08-13T12:33:13.601Z,1.85
2023-08-13T12:34:15.470Z,2.45
2023-08-13T12:35:17.472Z,3.45
2023-08-13T12:36:19.804Z,2.03
2023-08-13T12:37:21.827Z,2.30
2023-08-13T12:38:23.800Z,3.03
2023-08-13T12:39:25.866Z,2.10
2023-08-13T12:40:27.819Z,1.55
2023-08-13T12:41:39.088Z,1.70
2023-08-13T12:42:42.037Z,1.70
2023-08-13T12:43:43.907Z,2.00
2023-08-13T12:44:45.763Z,1.85
2023-08-13T12:45:47.936Z,1.70
2023-08-13T12:46:50.217Z,2.20
2023-08-13T12:47:52.464Z,2.00
2023-08-13T12:48:54.352Z,2.55
2023-08-13T12:49:56.367Z,2.45
2023-08-13T12:50:58.346Z,2.55
2023-08-13T12:52:00.203Z,2.05
2023-08-13T12:53:04.272Z,1.70
2023-08-13T12:54:06.233Z,1.65
2023-08-13T12:55:08.230Z,2.00
2023-08-13T12:56:10.829Z,1.67
2023-08-13T12:57:14.000Z,2.17
2023-08-13T12:58:15.902Z,2.70
2023-08-13T12:59:18.960Z,2.72
2023-08-13T13:00:20.815Z,2.13
2023-08-13T13:01:22.847Z,1.85
2023-08-13T13:02:29.716Z,2.03
2023-08-13T13:03:31.986Z,1.50
2023-08-13T13:04:34.040Z,1.50
2023-08-13T13:05:36.070Z,1.70
2023-08-13T13:06:37.883Z,2.17
2023-08-13T13:07:39.700Z,1.90
2023-08-13T13:08:41.597Z,2.10
2023-08-13T13:09:43.619Z,1.80
2023-08-13T13:10:45.591Z,1.90
2023-08-13T13:11:47.677Z,2.20
2023-08-13T13:12:49.618Z,1.70
2023-08-13T13:13:51.652Z,3.13
2023-08-13T13:14:53.489Z,3.20
2023-08-13T13:15:55.536Z,2.05
2023-08-13T13:16:57.747Z,2.10
2023-08-13T13:17:59.679Z,2.60
2023-08-13T13:19:01.552Z,2.00
2023-08-13T13:20:12.211Z,1.92
2023-08-13T13:21:14.375Z,1.95
2023-08-13T13:22:16.681Z,1.42
2023-08-13T13:23:18.859Z,1.40
2023-08-13T13:24:20.958Z,1.48
2023-08-13T13:25:22.834Z,1.95
2023-08-13T13:26:24.837Z,1.70
2023-08-13T13:27:26.652Z,1.80
2023-08-13T13:28:28.567Z,2.20
2023-08-13T13:29:30.413Z,2.03
2023-08-13T13:30:33.693Z,1.92
2023-08-13T13:31:35.689Z,2.05
2023-08-13T13:32:37.698Z,2.25
2023-08-13T13:33:39.636Z,1.77
2023-08-13T13:34:41.434Z,2.63
2023-08-13T13:35:43.309Z,2.50
2023-08-13T13:36:45.101Z,2.22
2023-08-13T13:37:46.946Z,2.40
2023-08-13T13:38:49.029Z,2.10
2023-08-13T13:39:50.873Z,1.88
2023-08-13T13:40:52.745Z,2.83
2023-08-13T13:41:54.561Z,2.10
2023-08-13T13:42:56.534Z,1.63
2023-08-13T13:43:58.464Z,2.65
2023-08-13T13:45:00.362Z,1.73
2023-08-13T13:46:02.724Z,2.00
2023-08-13T13:47:04.922Z,2.40
2023-08-13T13:48:07.502Z,1.90
2023-08-13T13:49:09.422Z,2.15
2023-08-13T13:50:11.255Z,2.25
2023-08-13T13:51:13.197Z,1.67
2023-08-13T13:52:15.047Z,2.35
2023-08-13T13:53:20.379Z,3.60
2023-08-13T13:54:22.956Z,1.92
2023-08-13T13:55:24.845Z,2.25
2023-08-13T13:56:26.654Z,2.55
2023-08-13T13:57:28.738Z,1.80
2023-08-13T13:58:30.561Z,2.10
2023-08-13T13:59:32.384Z,1.83
2023-08-13T14:00:34.640Z,1.75
2023-08-13T14:01:36.534Z,1.92
2023-08-13T14:02:38.432Z,2.15
2023-08-13T14:03:41.449Z,1.95
2023-08-13T14:04:43.459Z,3.10